createdAt,value
2018-07-25T00:01:51.742Z,78.43
2018-07-25T00:04:21.676Z,77.94
2018-07-25T00:06:51.547Z,77.69
2018-07-25T00:09:21.330Z,78.16
2018-07-25T00:11:51.411Z,77.83
2018-07-25T00:14:21.483Z,78.29
2018-07-25T00:16:51.272Z,78.28
2018-07-25T00:19:21.139Z,78.75
2018-07-25T00:21:51.332Z,78.83
2018-07-25T00:24:21.268Z,77.86
2018-07-25T00:26:50.958Z,77.55
2018-07-25T00:29:20.752Z,77.84
2018-07-25T00:31:50.764Z,77.73
2018-07-25T00:34:20.634Z,77.55
2018-07-25T00:36:50.426Z,77.65
2018-07-25T00:39:20.046Z,77.93
2018-07-25T00:41:50.006Z,78.04
2018-07-25T00:44:19.859Z,78.21
2018-07-25T00:46:49.897Z,78.20
2018-07-25T00:49:19.699Z,77.99
2018-07-25T00:51:49.683Z,78.27
2018-07-25T00:54:19.287Z,78.37
2018-07-25T00:56:49.016Z,78.28
2018-07-25T00:59:18.684Z,77.84
2018-07-25T01:01:48.241Z,77.95
2018-07-25T01:04:18.173Z,77.83
2018-07-25T01:06:48.346Z,78.03
2018-07-25T01:09:18.262Z,77.94
2018-07-25T01:11:48.033Z,77.60
2018-07-25T01:14:18.100Z,77.89
2018-07-25T01:16:47.902Z,77.48
2018-07-25T01:19:17.970Z,77.18
2018-07-25T01:21:47.936Z,76.50
2018-07-25T01:24:17.493Z,76.18
2018-07-25T01:26:47.116Z,76.39
2018-07-25T01:29:16.729Z,76.45
2018-07-25T01:31:46.597Z,76.37
2018-07-25T01:34:16.655Z,76.60
2018-07-25T01:36:46.570Z,76.69
2018-07-25T01:39:16.386Z,76.34
2018-07-25T01:41:46.213Z,76.59
2018-07-25T01:44:15.817Z,76.60
2018-07-25T01:46:45.606Z,76.20
2018-07-25T01:49:15.440Z,76.83
2018-07-25T01:51:45.383Z,76.00
2018-07-25T01:54:14.919Z,76.15
2018-07-25T01:56:44.748Z,76.84
2018-07-25T01:59:14.509Z,77.11
2018-07-25T02:01:44.723Z,77.38
2018-07-25T02:04:14.694Z,76.89
2018-07-25T02:06:44.288Z,77.41
2018-07-25T02:09:14.506Z,77.46
2018-07-25T02:11:44.325Z,76.84
2018-07-25T02:14:14.295Z,77.92
2018-07-25T02:16:44.103Z,78.06
2018-07-25T02:19:13.861Z,77.78
2018-07-25T02:21:43.597Z,77.83
2018-07-25T02:24:13.214Z,77.24
2018-07-25T02:26:42.816Z,77.07
2018-07-25T02:29:12.898Z,76.60
2018-07-25T02:31:42.618Z,77.29
2018-07-25T02:34:17.507Z,76.90
2018-07-25T02:36:47.519Z,77.78
2018-07-25T02:39:17.562Z,77.76
2018-07-25T02:41:47.563Z,78.47
2018-07-25T02:44:17.650Z,78.65
2018-07-25T02:46:47.546Z,78.64
2018-07-25T02:49:17.608Z,77.87
2018-07-25T02:51:47.326Z,77.80
2018-07-25T02:54:17.102Z,77.96
2018-07-25T02:56:46.846Z,77.73
2018-07-25T02:59:16.811Z,77.42
2018-07-25T03:01:46.776Z,77.43
2018-07-25T03:04:16.712Z,77.42
2018-07-25T03:06:46.771Z,77.17
2018-07-25T03:09:16.470Z,77.75
2018-07-25T03:11:46.402Z,77.65
2018-07-25T03:14:16.180Z,77.08
2018-07-25T03:16:46.071Z,76.98
2018-07-25T03:19:16.136Z,77.23
2018-07-25T03:21:45.791Z,76.58
2018-07-25T03:24:15.574Z,77.16
2018-07-25T03:26:45.203Z,77.42
2018-07-25T03:29:14.892Z,77.50
2018-07-25T03:31:44.695Z,76.99
2018-07-25T03:34:14.466Z,77.65
2018-07-25T03:36:44.260Z,77.32
2018-07-25T03:39:13.926Z,76.50
2018-07-25T03:41:43.740Z,76.54
2018-07-25T03:44:13.633Z,76.59
2018-07-25T03:46:43.261Z,77.04
2018-07-25T03:49:13.177Z,76.33
2018-07-25T03:51:42.739Z,76.82
2018-07-25T03:54:12.526Z,76.48
2018-07-25T03:56:42.226Z,76.10
2018-07-25T03:59:12.011Z,76.19
2018-07-25T04:01:42.142Z,76.21
2018-07-25T04:04:11.991Z,75.72
2018-07-25T04:06:42.088Z,75.37
2018-07-25T04:09:12.076Z,75.10
2018-07-25T04:11:41.955Z,74.82
2018-07-25T04:14:11.762Z,75.03
2018-07-25T04:16:41.559Z,75.61
2018-07-25T04:19:11.695Z,75.30
2018-07-25T04:21:41.363Z,74.86
2018-07-25T04:24:10.910Z,74.71
2018-07-25T04:26:40.824Z,74.37
2018-07-25T04:29:10.487Z,73.74
2018-07-25T04:31:40.475Z,74.10
2018-07-25T04:34:10.222Z,73.54
2018-07-25T04:36:40.142Z,75.59
2018-07-25T04:39:11.901Z,74.82
2018-07-25T04:41:42.010Z,74.37
2018-07-25T04:44:11.999Z,74.04
2018-07-25T04:46:41.949Z,73.69
2018-07-25T04:49:11.560Z,74.44
2018-07-25T04:51:41.167Z,74.46
2018-07-25T04:54:10.751Z,74.09
2018-07-25T04:56:40.430Z,74.13
2018-07-25T04:59:10.214Z,74.50
2018-07-25T05:01:39.991Z,74.79
2018-07-25T05:04:09.786Z,73.80
2018-07-25T05:06:39.574Z,74.78
2018-07-25T05:09:10.311Z,74.11
2018-07-25T05:11:40.687Z,73.89
2018-07-25T05:14:10.551Z,75.18
2018-07-25T05:16:40.234Z,76.92
2018-07-25T05:19:09.802Z,76.59
2018-07-25T05:21:39.353Z,78.52
2018-07-25T05:24:09.187Z,80.13
2018-07-25T05:26:38.769Z,80.31
2018-07-25T05:29:08.857Z,81.30
2018-07-25T05:31:38.767Z,83.26
2018-07-25T05:34:08.608Z,83.90
2018-07-25T05:36:38.562Z,84.59
2018-07-25T05:39:10.980Z,85.27
2018-07-25T05:41:41.363Z,85.64
2018-07-25T05:44:11.228Z,86.13
2018-07-25T05:46:41.138Z,86.79
2018-07-25T05:49:11.078Z,86.57
2018-07-25T05:51:40.939Z,84.91
2018-07-25T05:54:10.560Z,84.84
2018-07-25T05:56:40.203Z,85.42
2018-07-25T05:59:09.888Z,85.23
2018-07-25T06:01:39.578Z,84.52
2018-07-25T06:04:09.446Z,82.54
2018-07-25T06:06:39.356Z,82.66
2018-07-25T06:09:10.440Z,82.93
2018-07-25T06:11:40.567Z,82.00
2018-07-25T06:14:10.603Z,81.77
2018-07-25T06:16:40.562Z,82.59
2018-07-25T06:19:10.528Z,81.92
2018-07-25T06:21:40.493Z,80.41
2018-07-25T06:24:10.596Z,80.79
2018-07-25T06:26:40.210Z,79.73
2018-07-25T06:29:14.938Z,80.00
2018-07-25T06:31:44.608Z,79.46
2018-07-25T06:34:14.623Z,79.73
2018-07-25T06:36:44.322Z,79.56
2018-07-25T06:39:14.458Z,80.01
2018-07-25T06:41:44.332Z,79.86
2018-07-25T06:44:14.079Z,79.87
2018-07-25T06:46:43.944Z,79.80
2018-07-25T06:49:14.106Z,80.57
2018-07-25T06:51:44.027Z,79.78
2018-07-25T06:54:13.651Z,80.91
2018-07-25T06:56:43.318Z,79.95
2018-07-25T06:59:13.041Z,82.05
2018-07-25T07:01:42.691Z,81.35
2018-07-25T07:04:12.272Z,82.75
2018-07-25T07:06:42.068Z,81.60
2018-07-25T07:09:12.138Z,81.38
2018-07-25T07:11:42.018Z,82.00
2018-07-25T07:14:11.775Z,80.27
2018-07-25T07:16:41.709Z,81.26
2018-07-25T07:19:11.465Z,78.38
2018-07-25T07:21:41.286Z,78.26
2018-07-25T07:24:10.958Z,77.94
2018-07-25T07:26:40.823Z,77.62
2018-07-25T07:29:10.568Z,78.94
2018-07-25T07:31:40.152Z,79.35
2018-07-25T07:34:09.804Z,79.35
2018-07-25T07:36:39.499Z,79.85
2018-07-25T07:39:12.023Z,76.99
2018-07-25T07:41:41.700Z,78.48
2018-07-25T07:44:11.759Z,77.69
2018-07-25T07:46:41.710Z,77.39
2018-07-25T07:49:11.662Z,75.91
2018-07-25T07:51:41.506Z,76.76
2018-07-25T07:54:11.290Z,76.69
2018-07-25T07:56:41.264Z,76.65
2018-07-25T07:59:11.453Z,77.66
2018-07-25T08:01:41.390Z,78.20
2018-07-25T08:04:11.132Z,76.70
2018-07-25T08:06:41.190Z,76.33
2018-07-25T08:09:12.708Z,77.14
2018-07-25T08:11:42.239Z,76.31
2018-07-25T08:14:11.966Z,77.17
2018-07-25T08:16:42.040Z,74.79
2018-07-25T08:19:12.419Z,77.70
2018-07-25T08:21:42.228Z,76.24
2018-07-25T08:24:12.068Z,73.95
2018-07-25T08:26:42.005Z,73.01
2018-07-25T08:29:11.974Z,72.21
2018-07-25T08:31:41.660Z,72.81
2018-07-25T08:34:11.642Z,71.97
2018-07-25T08:36:41.451Z,73.04
2018-07-25T08:39:11.252Z,74.21
2018-07-25T08:41:41.092Z,73.97
2018-07-25T08:44:10.849Z,75.49
2018-07-25T08:46:40.656Z,74.80
2018-07-25T08:49:10.389Z,74.74
2018-07-25T08:51:40.052Z,72.94
2018-07-25T08:54:09.852Z,75.24
2018-07-25T08:56:40.639Z,73.02
2018-07-25T08:59:10.741Z,72.49
2018-07-25T09:01:40.642Z,73.96
2018-07-25T09:04:10.588Z,74.25
2018-07-25T09:06:40.522Z,75.26
2018-07-25T09:09:11.034Z,75.23
2018-07-25T09:11:40.597Z,72.29
2018-07-25T09:14:10.178Z,72.12
2018-07-25T09:16:40.064Z,72.18
2018-07-25T09:19:09.951Z,73.69
2018-07-25T09:21:39.651Z,73.28
2018-07-25T09:24:09.614Z,73.32
2018-07-25T09:26:39.419Z,74.26
2018-07-25T09:29:09.226Z,76.21
2018-07-25T09:31:39.320Z,70.60
2018-07-25T09:34:09.477Z,72.85
2018-07-25T09:36:39.317Z,73.80
2018-07-25T09:39:11.106Z,77.33
2018-07-25T09:41:40.916Z,77.12
2018-07-25T09:44:10.626Z,78.15
2018-07-25T09:46:40.360Z,76.35
2018-07-25T09:49:09.977Z,77.10
2018-07-25T09:51:39.864Z,76.30
2018-07-25T09:54:09.650Z,77.62
2018-07-25T09:56:39.448Z,74.16
2018-07-25T09:59:09.605Z,73.77
2018-07-25T10:01:39.362Z,72.41
2018-07-25T10:04:09.159Z,73.66
2018-07-25T10:06:38.910Z,73.22
2018-07-25T10:09:11.259Z,71.53
2018-07-25T10:11:41.017Z,72.68
2018-07-25T10:14:11.074Z,73.28
2018-07-25T10:16:40.694Z,72.02
2018-07-25T10:19:10.346Z,72.31
2018-07-25T10:21:39.978Z,74.06
2018-07-25T10:24:09.618Z,73.61
2018-07-25T10:26:39.206Z,73.02
2018-07-25T10:29:08.825Z,72.86
2018-07-25T10:31:38.496Z,70.39
2018-07-25T10:34:08.318Z,69.22
2018-07-25T10:36:38.211Z,69.40
2018-07-25T10:39:09.304Z,68.98
2018-07-25T10:41:40.720Z,70.01
2018-07-25T10:44:10.595Z,70.72
2018-07-25T10:46:40.262Z,70.31
2018-07-25T10:49:09.902Z,70.97
2018-07-25T10:51:39.437Z,71.71
2018-07-25T10:54:09.132Z,71.32
2018-07-25T10:56:38.826Z,73.42
2018-07-25T10:59:08.522Z,76.25
2018-07-25T11:01:38.634Z,76.96
2018-07-25T11:04:08.239Z,76.59
2018-07-25T11:06:38.059Z,77.81
2018-07-25T11:09:08.999Z,79.24
2018-07-25T11:11:39.165Z,80.56
2018-07-25T11:14:09.686Z,80.32
2018-07-25T11:16:40.332Z,80.78
2018-07-25T11:19:11.182Z,83.06
2018-07-25T11:21:41.797Z,82.82
2018-07-25T11:24:11.433Z,84.39
2018-07-25T11:26:41.383Z,85.19
2018-07-25T11:29:11.450Z,85.77
2018-07-25T11:31:41.419Z,85.26
2018-07-25T11:34:11.419Z,83.71
2018-07-25T11:36:41.378Z,83.22
2018-07-25T11:39:12.724Z,84.10
2018-07-25T11:41:42.660Z,83.75
2018-07-25T11:44:12.707Z,83.78
2018-07-25T11:46:42.556Z,82.36
2018-07-25T11:49:12.198Z,80.61
2018-07-25T11:51:41.815Z,79.23
2018-07-25T11:54:12.888Z,79.99
2018-07-25T11:56:42.582Z,80.15
2018-07-25T11:59:12.111Z,80.73
2018-07-25T12:01:42.141Z,81.19
2018-07-25T12:04:12.141Z,81.42
2018-07-25T12:06:41.957Z,79.18
2018-07-25T12:09:12.388Z,79.47
2018-07-25T12:11:45.783Z,80.03
2018-07-25T12:14:17.055Z,76.55
2018-07-25T12:16:46.999Z,74.15
2018-07-25T12:19:16.580Z,73.59
2018-07-25T12:21:46.590Z,73.94
2018-07-25T12:24:16.542Z,77.40
2018-07-25T12:26:46.179Z,74.04
2018-07-25T12:29:15.797Z,69.61
2018-07-25T12:31:45.945Z,65.38
2018-07-25T12:34:15.878Z,62.79
2018-07-25T12:36:45.777Z,61.33
2018-07-25T12:39:15.548Z,61.79
2018-07-25T12:41:45.404Z,62.92
2018-07-25T12:44:15.050Z,62.18
2018-07-25T12:46:44.984Z,57.57
2018-07-25T12:49:15.834Z,59.59
2018-07-25T12:51:46.587Z,59.57
2018-07-25T12:54:17.976Z,57.38
2018-07-25T12:56:48.344Z,57.13
2018-07-25T12:59:18.137Z,57.22
2018-07-25T13:01:48.107Z,57.61
2018-07-25T13:04:18.091Z,58.41
2018-07-25T13:06:48.091Z,57.67
2018-07-25T13:09:18.082Z,58.24
2018-07-25T13:11:47.882Z,59.21
2018-07-25T13:14:18.506Z,60.57
2018-07-25T13:16:48.492Z,59.95
2018-07-25T13:19:18.525Z,61.27
2018-07-25T13:21:48.483Z,59.57
2018-07-25T13:24:18.521Z,59.35
2018-07-25T13:26:48.968Z,59.11
2018-07-25T13:29:18.901Z,60.06
2018-07-25T13:31:48.960Z,59.00
2018-07-25T13:34:18.750Z,60.22
2018-07-25T13:36:48.832Z,60.59
2018-07-25T13:39:18.585Z,60.22
2018-07-25T13:41:48.765Z,60.51
2018-07-25T13:44:18.819Z,58.90
2018-07-25T13:46:48.678Z,58.51
2018-07-25T13:49:18.859Z,58.82
2018-07-25T13:51:49.092Z,58.71
2018-07-25T13:54:18.956Z,59.10
2018-07-25T13:56:48.815Z,59.66
2018-07-25T13:59:18.733Z,59.22
2018-07-25T14:01:48.275Z,58.95
2018-07-25T14:04:17.960Z,58.50
2018-07-25T14:06:47.864Z,58.21
2018-07-25T14:09:17.778Z,56.96
2018-07-25T14:11:47.644Z,56.46
2018-07-25T14:14:17.631Z,57.36
2018-07-25T14:16:47.881Z,56.65
2018-07-25T14:19:17.587Z,58.03
2018-07-25T14:21:47.503Z,59.52
2018-07-25T14:24:17.351Z,59.04
2018-07-25T14:26:47.684Z,58.57
2018-07-25T14:29:17.482Z,58.67
2018-07-25T14:31:47.107Z,58.27
2018-07-25T14:34:16.915Z,58.56
2018-07-25T14:36:46.893Z,57.76
2018-07-25T14:39:18.205Z,57.19
2018-07-25T14:41:49.655Z,57.79
2018-07-25T14:44:20.130Z,56.85
2018-07-25T14:46:50.068Z,56.14
2018-07-25T14:49:19.629Z,55.03
2018-07-25T14:51:49.570Z,56.37
2018-07-25T14:54:19.226Z,54.73
2018-07-25T14:56:49.112Z,54.54
2018-07-25T14:59:18.959Z,52.83
2018-07-25T15:01:48.923Z,53.95
2018-07-25T15:04:18.830Z,54.50
2018-07-25T15:06:48.455Z,55.31
2018-07-25T15:09:18.102Z,54.33
2018-07-25T15:11:47.747Z,54.23
2018-07-25T15:14:17.574Z,54.51
2018-07-25T15:16:47.454Z,52.55
2018-07-25T15:19:17.232Z,49.02
2018-07-25T15:21:47.428Z,49.92
2018-07-25T15:24:17.309Z,50.86
2018-07-25T15:26:47.129Z,50.54
2018-07-25T15:29:17.021Z,50.39
2018-07-25T15:34:16.469Z,50.00
2018-07-25T15:36:49.536Z,50.68
2018-07-25T15:39:21.674Z,51.37
2018-07-25T15:41:52.193Z,50.47
2018-07-25T15:44:23.240Z,50.90
2018-07-25T15:46:53.239Z,51.54
2018-07-25T15:49:29.627Z,52.86
2018-07-25T15:51:59.503Z,50.93
2018-07-25T15:54:29.513Z,52.51
2018-07-25T15:56:59.532Z,50.82
2018-07-25T15:59:29.466Z,50.07
2018-07-25T16:01:59.594Z,48.16
2018-07-25T16:04:29.441Z,48.12
2018-07-25T16:07:00.022Z,47.85
2018-07-25T16:09:29.701Z,45.62
2018-07-25T16:11:59.542Z,46.61
2018-07-25T16:14:29.234Z,44.70
2018-07-25T16:16:59.015Z,45.37
2018-07-25T16:19:28.959Z,44.96
2018-07-25T16:21:58.828Z,46.60
2018-07-25T16:24:28.752Z,47.45
2018-07-25T16:26:58.499Z,50.95
2018-07-25T16:29:28.195Z,53.92
2018-07-25T16:31:57.992Z,57.83
2018-07-25T16:34:27.696Z,59.31
2018-07-25T16:36:57.649Z,57.93
2018-07-25T16:39:27.682Z,60.66
2018-07-25T16:41:57.266Z,63.87
2018-07-25T16:44:27.010Z,63.08
2018-07-25T16:46:56.571Z,64.28
2018-07-25T16:49:26.451Z,63.77
2018-07-25T16:51:56.404Z,66.99
2018-07-25T16:54:26.275Z,67.92
2018-07-25T16:56:55.865Z,68.93
2018-07-25T16:59:25.913Z,69.56
2018-07-25T17:01:55.694Z,71.55
2018-07-25T17:04:25.578Z,73.20
2018-07-25T17:06:55.400Z,75.11
2018-07-25T17:09:25.269Z,76.36
2018-07-25T17:11:55.282Z,77.03
2018-07-25T17:14:24.868Z,78.70
2018-07-25T17:16:54.842Z,79.55
2018-07-25T17:19:24.923Z,78.90
2018-07-25T17:21:55.062Z,79.02
2018-07-25T17:24:24.837Z,78.45
2018-07-25T17:26:54.727Z,78.72
2018-07-25T17:29:24.509Z,80.05
2018-07-25T17:31:54.323Z,80.74
2018-07-25T17:34:24.190Z,80.57
2018-07-25T17:36:53.947Z,82.33
2018-07-25T17:39:23.760Z,83.00
2018-07-25T17:41:53.755Z,82.88
2018-07-25T17:44:23.848Z,84.22
2018-07-25T17:46:53.499Z,84.59
2018-07-25T17:49:23.243Z,84.98
2018-07-25T17:51:52.991Z,84.76
2018-07-25T17:54:23.021Z,83.58
2018-07-25T17:56:53.028Z,83.72
2018-07-25T17:59:22.659Z,83.03
2018-07-25T18:01:52.650Z,83.04
2018-07-25T18:04:22.507Z,82.37
2018-07-25T18:06:52.551Z,82.37
2018-07-25T18:09:22.380Z,81.85
2018-07-25T18:11:52.334Z,82.31
2018-07-25T18:14:22.167Z,81.37
2018-07-25T18:16:52.033Z,81.68
2018-07-25T18:19:21.818Z,80.71
2018-07-25T18:21:51.372Z,80.33
2018-07-25T18:24:21.026Z,82.07
2018-07-25T18:26:50.638Z,81.76
2018-07-25T18:29:20.537Z,81.00
2018-07-25T18:31:50.226Z,80.18
2018-07-25T18:34:19.948Z,80.29
2018-07-25T18:36:49.763Z,80.89
2018-07-25T18:39:19.735Z,80.12
2018-07-25T18:41:49.484Z,79.74
2018-07-25T18:44:19.462Z,80.07
2018-07-25T18:46:49.367Z,79.00
2018-07-25T18:49:19.399Z,79.10
2018-07-25T18:51:49.248Z,78.59
2018-07-25T18:57:00.105Z,79.00
2018-07-25T18:59:29.713Z,78.74
2018-07-25T19:01:59.526Z,78.69
2018-07-25T19:04:29.316Z,79.80
2018-07-25T19:06:59.219Z,79.24
2018-07-25T19:09:28.952Z,79.40
2018-07-25T19:11:58.582Z,80.41
2018-07-25T19:14:33.427Z,80.92
2018-07-25T19:17:03.155Z,80.21
2018-07-25T19:19:32.829Z,81.03
2018-07-25T19:22:02.848Z,80.84
2018-07-25T19:24:32.382Z,81.19
2018-07-25T19:27:02.438Z,81.04
2018-07-25T19:29:32.096Z,80.30
2018-07-25T19:32:02.193Z,79.42
2018-07-25T19:34:32.054Z,80.63
2018-07-25T19:37:01.929Z,81.35
2018-07-25T19:39:36.522Z,80.76
2018-07-25T19:42:07.507Z,80.75
2018-07-25T19:44:37.447Z,79.89
2018-07-25T19:47:07.587Z,80.92
2018-07-25T19:49:37.388Z,81.43
2018-07-25T19:52:07.253Z,81.63
2018-07-25T19:54:37.240Z,82.23
2018-07-25T19:57:07.024Z,81.19
2018-07-25T19:59:36.903Z,81.24
2018-07-25T20:02:06.588Z,81.25
2018-07-25T20:04:36.224Z,81.84
2018-07-25T20:07:06.286Z,80.12
2018-07-25T20:09:36.202Z,81.51
2018-07-25T20:12:05.819Z,82.44
2018-07-25T20:14:40.877Z,82.88
2018-07-25T20:17:10.636Z,82.26
2018-07-25T20:19:40.267Z,82.14
2018-07-25T20:22:09.912Z,82.67
2018-07-25T20:24:39.738Z,82.83
2018-07-25T20:27:09.409Z,82.63
2018-07-25T20:29:39.273Z,82.31
2018-07-25T20:32:08.857Z,80.95
2018-07-25T20:34:38.438Z,80.91
2018-07-25T20:37:08.134Z,81.33
2018-07-25T20:39:38.164Z,82.45
2018-07-25T20:42:08.318Z,82.37
2018-07-25T20:44:38.035Z,82.90
2018-07-25T20:47:08.016Z,83.55
2018-07-25T20:49:37.625Z,83.55
2018-07-25T20:52:07.539Z,83.50
2018-07-25T20:54:37.301Z,84.04
2018-07-25T20:57:07.115Z,83.98
2018-07-25T20:59:36.758Z,83.87
2018-07-25T21:02:06.682Z,84.19
2018-07-25T21:04:36.320Z,84.56
2018-07-25T21:07:05.952Z,84.59
2018-07-25T21:09:35.638Z,84.87
2018-07-25T21:12:05.229Z,85.60
2018-07-25T21:14:35.019Z,85.53
2018-07-25T21:17:04.628Z,85.68
2018-07-25T21:19:34.379Z,85.56
2018-07-25T21:22:03.919Z,84.80
2018-07-25T21:24:33.954Z,84.78
2018-07-25T21:27:03.615Z,84.42
2018-07-25T21:29:33.394Z,84.40
2018-07-25T21:32:03.210Z,85.25
2018-07-25T21:34:33.088Z,84.62
2018-07-25T21:37:03.215Z,84.09
2018-07-25T21:39:32.896Z,83.49
2018-07-25T21:42:02.480Z,83.65
2018-07-25T21:44:32.435Z,83.56
2018-07-25T21:47:02.280Z,84.51
2018-07-25T21:49:32.233Z,84.29
2018-07-25T21:52:02.502Z,84.58
2018-07-25T21:54:32.379Z,84.63
2018-07-25T21:57:02.482Z,84.46
2018-07-25T21:59:32.561Z,84.21
2018-07-25T22:02:02.410Z,84.68
2018-07-25T22:04:32.335Z,84.58
2018-07-25T22:07:01.972Z,84.84
2018-07-25T22:09:31.746Z,84.61
2018-07-25T22:12:01.554Z,83.77
2018-07-25T22:14:31.128Z,83.40
2018-07-25T22:17:01.410Z,83.90
2018-07-25T22:19:31.275Z,84.64
2018-07-25T22:22:01.214Z,84.41
2018-07-25T22:24:31.183Z,83.98
2018-07-25T22:27:01.147Z,84.13
2018-07-25T22:29:31.385Z,83.32
2018-07-25T22:32:01.423Z,83.66
2018-07-25T22:34:31.206Z,84.10
2018-07-25T22:37:00.995Z,83.32
2018-07-25T22:39:30.828Z,83.71
2018-07-25T22:42:00.470Z,84.58
2018-07-25T22:44:30.521Z,84.37
2018-07-25T22:47:00.543Z,84.36
2018-07-25T22:49:30.143Z,84.35
2018-07-25T22:51:59.816Z,84.68
2018-07-25T22:54:29.503Z,84.90
2018-07-25T22:56:59.327Z,84.36
2018-07-25T22:59:29.163Z,84.47
2018-07-25T23:01:59.189Z,84.56
2018-07-25T23:04:28.916Z,85.20
2018-07-25T23:06:58.943Z,85.07
2018-07-25T23:09:28.671Z,84.26
2018-07-25T23:11:58.406Z,84.41
2018-07-25T23:14:28.232Z,84.88
2018-07-25T23:16:57.718Z,85.09
2018-07-25T23:19:27.396Z,85.75
2018-07-25T23:21:56.997Z,85.06
2018-07-25T23:24:26.635Z,84.25
2018-07-25T23:26:56.477Z,84.50
2018-07-25T23:29:26.652Z,84.12
2018-07-25T23:31:56.562Z,84.66
2018-07-25T23:34:26.327Z,84.49
2018-07-25T23:36:56.199Z,84.44
2018-07-25T23:39:25.845Z,84.74
2018-07-25T23:41:55.606Z,84.57
2018-07-25T23:44:25.303Z,83.97
2018-07-25T23:46:55.029Z,85.01
2018-07-25T23:49:24.656Z,84.89
2018-07-25T23:51:54.604Z,84.79
2018-07-25T23:54:24.204Z,85.29
2018-07-25T23:56:53.763Z,85.50
2018-07-25T23:59:23.348Z,85.55
